Time;durP1;ratioP1;P1;durP2;ratioP2;P2;SDS_P1;SDS_P2;PMS_P1;PMS_P2;Temp;Humidity;BMP_temperature;BMP_pressure;BME280_temperature;BME280_humidity;BME280_pressure;Samples;Min_cycle;Max_cycle;Signal;HPM_P1;HPM_P2
2021/06/12 00:02:14;;;;;;;8.90;7.97;;;23.50;69.70;;;;;;4987135;28;20679;-60
2021/06/12 00:04:40;;;;;;;8.35;7.57;;;23.50;69.90;;;;;;4990014;28;20033;-60
2021/06/12 00:07:05;;;;;;;9.23;7.07;;;23.40;70.00;;;;;;5007358;28;20141;-60
2021/06/12 00:09:31;;;;;;;12.50;7.22;;;23.40;70.10;;;;;;5007680;28;20042;-60
2021/06/12 00:11:56;;;;;;;11.02;7.20;;;23.40;70.20;;;;;;5007192;28;20112;-60
2021/06/12 00:14:22;;;;;;;10.40;7.47;;;23.30;70.30;;;;;;5006449;28;20034;-59
2021/06/12 00:16:47;;;;;;;9.45;7.07;;;23.30;70.30;;;;;;4988663;28;20038;-60
2021/06/12 00:19:13;;;;;;;8.63;7.28;;;23.30;70.50;;;;;;5005639;28;20089;-59
2021/06/12 00:21:39;;;;;;;7.80;7.00;;;23.20;70.50;;;;;;5003664;28;20033;-59
2021/06/12 00:24:05;;;;;;;13.40;7.50;;;23.20;70.60;;;;;;5004437;28;20034;-60
2021/06/12 00:26:31;;;;;;;7.82;7.13;;;23.20;70.70;;;;;;5003180;28;20065;-60
2021/06/12 00:28:56;;;;;;;8.57;7.03;;;23.20;70.80;;;;;;5002739;28;20081;-60
2021/06/12 00:31:22;;;;;;;7.55;6.65;;;23.20;70.90;;;;;;5006594;28;20020;-59
2021/06/12 00:33:47;;;;;;;10.20;7.30;;;23.10;70.90;;;;;;5006560;28;20026;-60
2021/06/12 00:36:13;;;;;;;8.88;8.00;;;23.10;71.00;;;;;;5006611;28;20556;-60
2021/06/12 00:38:38;;;;;;;8.45;7.03;;;23.10;71.10;;;;;;5005372;28;20096;-59
2021/06/12 00:41:06;;;;;;;11.60;7.50;;;23.00;71.10;;;;;;5006046;28;20057;-60
2021/06/12 00:43:32;;;;;;;10.88;7.22;;;23.00;71.20;;;;;;5004010;28;20029;-59
2021/06/12 00:45:57;;;;;;;7.85;7.15;;;23.00;71.30;;;;;;5006052;28;20041;-60
2021/06/12 00:48:27;;;;;;;9.35;7.10;;;23.00;71.40;;;;;;5006586;28;20057;-60
2021/06/12 00:50:52;;;;;;;7.85;6.88;;;23.00;71.70;;;;;;5004692;28;20084;-60
2021/06/12 00:53:19;;;;;;;11.35;7.18;;;22.90;71.50;;;;;;5007431;28;20026;-60
2021/06/12 00:55:45;;;;;;;9.32;7.32;;;22.90;71.60;;;;;;5006393;28;20385;-60
2021/06/12 00:58:11;;;;;;;8.55;7.03;;;22.90;71.80;;;;;;5004880;28;20359;-60
2021/06/12 01:00:36;;;;;;;9.23;7.07;;;22.80;71.80;;;;;;5005186;28;20109;-60
2021/06/12 01:03:02;;;;;;;8.90;6.68;;;22.80;71.90;;;;;;5004955;28;20046;-59
2021/06/12 01:05:27;;;;;;;8.82;6.38;;;22.80;72.00;;;;;;5005233;28;20107;-60
2021/06/12 01:07:53;;;;;;;9.38;6.93;;;22.70;72.00;;;;;;5002606;28;20084;-59
2021/06/12 01:10:19;;;;;;;9.65;6.63;;;22.70;72.10;;;;;;5003919;28;20431;-61
2021/06/12 01:13:15;;;;;;;8.27;7.47;;;22.70;72.20;;;;;;5005462;28;20073;-60
2021/06/12 01:15:52;;;;;;;8.07;7.22;;;22.70;72.30;;;;;;5004138;28;20041;-60
2021/06/12 01:18:19;;;;;;;12.48;7.25;;;22.70;72.50;;;;;;4988610;28;20068;-60
2021/06/12 01:21:03;;;;;;;9.85;7.22;;;22.60;72.40;;;;;;5005239;28;20054;-60
2021/06/12 01:23:49;;;;;;;7.65;6.90;;;22.60;72.60;;;;;;5006521;28;20026;-60
2021/06/12 01:26:40;;;;;;;13.18;7.70;;;22.60;72.70;;;;;;5002305;28;20038;-60
2021/06/12 01:29:42;;;;;;;8.55;7.13;;;22.60;72.80;;;;;;5002877;28;20748;-59
2021/06/12 01:32:08;;;;;;;9.85;7.60;;;22.50;72.80;;;;;;5004312;28;20538;-59
2021/06/12 01:34:34;;;;;;;7.20;6.50;;;22.50;73.00;;;;;;4987790;28;20030;-60
2021/06/12 01:37:00;;;;;;;8.88;7.07;;;22.40;73.00;;;;;;4984841;28;20474;-60
2021/06/12 01:39:26;;;;;;;7.53;6.82;;;22.40;73.20;;;;;;5005552;28;20284;-60
2021/06/12 01:41:52;;;;;;;9.85;7.50;;;22.40;73.40;;;;;;5004501;28;20022;-60
2021/06/12 01:44:18;;;;;;;9.45;7.65;;;22.30;73.40;;;;;;4989136;28;20371;-60
2021/06/12 01:46:45;;;;;;;8.00;7.28;;;22.30;73.40;;;;;;4986873;28;20041;-59
2021/06/12 01:49:12;;;;;;;8.60;7.80;;;22.30;73.40;;;;;;4988017;28;20034;-60
2021/06/12 01:51:37;;;;;;;9.27;7.03;;;22.30;73.50;;;;;;4988533;28;20360;-59
2021/06/12 01:54:03;;;;;;;8.45;7.57;;;22.30;73.60;;;;;;5002608;28;20117;-59
2021/06/12 01:56:28;;;;;;;9.98;7.10;;;22.30;73.60;;;;;;5001637;28;20026;-59
2021/06/12 01:58:54;;;;;;;7.80;7.10;;;22.20;73.60;;;;;;5020185;28;20532;-60
2021/06/12 02:01:21;;;;;;;9.65;7.63;;;22.20;73.70;;;;;;4986072;28;20052;-59
2021/06/12 02:03:47;;;;;;;10.45;7.53;;;22.20;73.80;;;;;;5005905;28;20026;-60
2021/06/12 02:06:16;;;;;;;7.35;6.75;;;22.20;73.80;;;;;;5003571;28;20667;-60
2021/06/12 02:08:41;;;;;;;7.45;6.50;;;22.10;73.80;;;;;;4989037;28;20033;-60
2021/06/12 02:11:07;;;;;;;8.32;7.63;;;22.10;73.90;;;;;;5002310;28;20034;-60
2021/06/12 02:13:32;;;;;;;10.50;7.55;;;22.10;74.00;;;;;;5004432;28;20104;-58
2021/06/12 02:15:58;;;;;;;7.72;7.07;;;22.10;74.00;;;;;;5004021;28;20440;-60
2021/06/12 02:18:24;;;;;;;8.50;7.65;;;22.10;74.10;;;;;;5003990;28;20127;-60
2021/06/12 02:20:50;;;;;;;7.88;7.18;;;22.00;74.20;;;;;;5004696;28;20042;-60
2021/06/12 02:23:16;;;;;;;7.82;7.10;;;22.00;74.20;;;;;;5004979;28;20041;-60
2021/06/12 02:25:41;;;;;;;7.55;6.78;;;22.00;74.30;;;;;;5003147;28;20049;-59
2021/06/12 02:28:10;;;;;;;13.95;7.20;;;22.00;74.40;;;;;;4971686;28;20033;-60
2021/06/12 02:30:45;;;;;;;8.43;7.70;;;22.00;74.40;;;;;;4987441;28;20211;-59
2021/06/12 02:33:13;;;;;;;8.38;6.90;;;21.90;74.40;;;;;;5004353;28;20033;-60
2021/06/12 02:35:39;;;;;;;9.27;7.65;;;21.90;74.50;;;;;;5003421;28;20052;-59
2021/06/12 02:38:04;;;;;;;7.07;6.47;;;21.90;74.50;;;;;;4987542;28;20022;-60
2021/06/12 02:40:30;;;;;;;7.57;6.93;;;21.90;74.60;;;;;;5005152;28;20033;-60
2021/06/12 02:42:55;;;;;;;9.20;6.93;;;21.80;74.60;;;;;;5003927;28;20041;-59
2021/06/12 02:45:24;;;;;;;7.22;6.53;;;21.80;74.70;;;;;;5004068;28;20030;-59
2021/06/12 02:47:54;;;;;;;9.60;6.15;;;21.80;74.60;;;;;;5005315;28;20045;-60
2021/06/12 02:50:20;;;;;;;8.00;6.93;;;21.80;74.70;;;;;;4987958;28;20390;-59
2021/06/12 02:52:46;;;;;;;7.20;6.38;;;21.70;74.80;;;;;;4986119;28;20119;-60
2021/06/12 02:55:12;;;;;;;7.40;6.70;;;21.70;74.80;;;;;;5002643;28;20093;-59
2021/06/12 02:57:44;;;;;;;7.47;6.38;;;21.70;74.80;;;;;;4985657;28;20042;-59
2021/06/12 03:00:10;;;;;;;7.72;6.85;;;21.60;74.90;;;;;;4986796;28;20036;-60
2021/06/12 03:02:37;;;;;;;8.25;6.85;;;21.60;75.00;;;;;;5002761;28;20033;-60
2021/06/12 03:05:03;;;;;;;7.97;7.28;;;21.60;75.00;;;;;;4987545;28;20048;-60
2021/06/12 03:07:30;;;;;;;7.32;6.72;;;21.60;75.10;;;;;;5002465;28;20358;-59
2021/06/12 03:09:56;;;;;;;8.02;7.32;;;21.50;75.10;;;;;;5001929;28;20125;-59
2021/06/12 03:12:21;;;;;;;8.63;6.90;;;21.60;75.20;;;;;;4985025;28;20509;-60
2021/06/12 03:14:47;;;;;;;7.93;7.25;;;21.50;75.10;;;;;;5002130;28;20026;-60
2021/06/12 03:17:12;;;;;;;8.18;7.32;;;21.50;75.20;;;;;;4985751;28;20501;-59
2021/06/12 03:19:38;;;;;;;8.40;7.30;;;21.50;75.20;;;;;;5003521;28;20073;-60
2021/06/12 03:22:04;;;;;;;7.45;6.75;;;21.50;75.20;;;;;;4987428;28;20109;-60
2021/06/12 03:24:29;;;;;;;7.95;7.22;;;21.50;75.30;;;;;;5003974;28;20042;-60
2021/06/12 03:26:59;;;;;;;8.45;7.55;;;21.40;75.20;;;;;;5003518;28;20083;-59
2021/06/12 03:29:24;;;;;;;7.95;7.10;;;21.50;75.30;;;;;;4988362;28;20084;-59
2021/06/12 03:31:50;;;;;;;7.65;6.95;;;21.40;75.30;;;;;;5003642;28;20449;-59
2021/06/12 03:34:16;;;;;;;8.40;6.72;;;21.40;75.30;;;;;;4987100;28;20025;-60
2021/06/12 03:36:41;;;;;;;7.75;7.05;;;21.40;75.50;;;;;;4986429;28;20502;-60
2021/06/12 03:39:08;;;;;;;7.15;6.55;;;21.30;75.50;;;;;;5003144;28;20030;-59
2021/06/12 03:41:33;;;;;;;7.88;7.07;;;21.30;75.60;;;;;;5004758;28;20030;-60
2021/06/12 03:43:59;;;;;;;8.32;7.13;;;21.30;75.60;;;;;;5001473;28;20486;-60
2021/06/12 03:46:24;;;;;;;10.88;6.45;;;21.20;75.50;;;;;;4985818;28;20029;-60
2021/06/12 03:48:50;;;;;;;7.43;6.55;;;21.30;75.60;;;;;;5002236;28;20081;-60
2021/06/12 03:51:16;;;;;;;6.93;6.10;;;21.30;75.70;;;;;;4986220;28;20026;-60
2021/06/12 03:53:44;;;;;;;6.95;6.35;;;21.20;75.70;;;;;;5002286;28;20014;-59
2021/06/12 03:56:32;;;;;;;7.60;6.80;;;21.20;75.80;;;;;;4999752;28;20396;-60
2021/06/12 03:58:57;;;;;;;8.75;6.65;;;21.20;75.90;;;;;;4998127;28;20084;-59
2021/06/12 04:01:23;;;;;;;7.95;6.15;;;21.20;75.90;;;;;;4997024;28;20029;-60
2021/06/12 04:03:48;;;;;;;8.15;6.55;;;21.10;75.90;;;;;;4999309;28;20041;-60
2021/06/12 04:06:14;;;;;;;19.02;7.00;;;21.10;75.90;;;;;;4999129;28;20030;-60
2021/06/12 04:08:39;;;;;;;22.15;7.63;;;21.20;76.00;;;;;;4996528;28;20068;-59
2021/06/12 04:11:06;;;;;;;21.45;7.47;;;21.10;76.10;;;;;;4997536;28;20037;-59
2021/06/12 04:13:31;;;;;;;26.90;8.40;;;21.10;76.20;;;;;;4998430;28;20375;-59
2021/06/12 04:15:57;;;;;;;29.73;9.18;;;21.00;76.20;;;;;;5001386;28;20390;-59
2021/06/12 04:18:22;;;;;;;27.83;9.02;;;21.00;76.30;;;;;;5001615;28;20064;-60
2021/06/12 04:20:48;;;;;;;55.42;9.40;;;21.00;76.50;;;;;;5015955;28;20524;-59
2021/06/12 04:23:13;;;;;;;49.60;9.80;;;21.00;76.50;;;;;;5001459;28;20034;-60
2021/06/12 04:25:39;;;;;;;85.72;11.60;;;21.00;76.70;;;;;;4981711;28;20468;-61
2021/06/12 04:28:05;;;;;;;127.43;16.75;;;21.00;76.70;;;;;;5001185;28;20535;-60
2021/06/12 04:30:30;;;;;;;219.75;20.30;;;21.00;76.80;;;;;;4999542;28;20497;-59
2021/06/12 04:32:56;;;;;;;289.17;25.02;;;21.00;76.80;;;;;;4998321;28;20476;-60
2021/06/12 04:35:21;;;;;;;207.02;21.17;;;21.00;77.00;;;;;;4992202;28;20033;-60
2021/06/12 04:37:47;;;;;;;162.60;17.38;;;20.90;76.90;;;;;;4995877;28;20037;-60
2021/06/12 04:40:13;;;;;;;260.98;23.83;;;20.90;77.00;;;;;;4996910;28;20030;-60
2021/06/12 04:42:38;;;;;;;294.73;27.33;;;20.90;77.10;;;;;;4960944;28;20121;-60
2021/06/12 04:45:06;;;;;;;250.52;23.38;;;20.90;77.30;;;;;;4995291;28;20033;-59
2021/06/12 04:47:32;;;;;;;214.48;19.45;;;20.90;77.20;;;;;;4997155;28;20050;-60
2021/06/12 04:49:57;;;;;;;165.68;18.38;;;20.90;77.30;;;;;;5000932;28;20533;-60
2021/06/12 04:52:23;;;;;;;184.88;19.13;;;20.90;77.30;;;;;;4998375;28;20134;-59
2021/06/12 04:54:48;;;;;;;155.23;17.60;;;20.90;77.30;;;;;;4998484;28;20501;-59
2021/06/12 04:57:14;;;;;;;186.68;17.55;;;20.80;77.30;;;;;;5003537;28;20030;-60
2021/06/12 04:59:39;;;;;;;139.93;16.38;;;20.90;77.40;;;;;;5002866;28;20474;-60
2021/06/12 05:02:05;;;;;;;116.10;15.23;;;20.90;77.50;;;;;;5005361;28;20065;-59
2021/06/12 05:04:30;;;;;;;107.72;14.80;;;20.90;77.40;;;;;;5004642;28;20107;-60
2021/06/12 05:06:56;;;;;;;127.28;15.18;;;20.90;77.40;;;;;;5002168;28;20143;-60
2021/06/12 05:09:21;;;;;;;125.20;15.05;;;20.90;77.40;;;;;;5006411;28;20042;-60
2021/06/12 05:11:47;;;;;;;108.40;15.05;;;20.90;77.50;;;;;;5005044;28;20056;-59
2021/06/12 05:14:12;;;;;;;106.75;14.15;;;20.80;77.50;;;;;;5002281;28;20477;-59
2021/06/12 05:16:39;;;;;;;71.53;12.60;;;20.80;77.50;;;;;;4998455;28;20034;-59
2021/06/12 05:19:05;;;;;;;88.70;13.48;;;20.80;77.80;;;;;;5000317;28;20185;-59
2021/06/12 05:21:37;;;;;;;66.43;12.20;;;20.80;77.90;;;;;;5005398;28;20116;-60
2021/06/12 05:24:02;;;;;;;46.70;10.20;;;20.60;78.30;;;;;;4987190;28;20453;-59
2021/06/12 05:26:28;;;;;;;43.00;10.57;;;20.80;78.80;;;;;;5015496;28;20038;-60
2021/06/12 05:28:53;;;;;;;45.83;9.70;;;20.70;79.00;;;;;;5004302;28;20066;-59
2021/06/12 05:31:19;;;;;;;33.90;9.40;;;20.70;79.00;;;;;;5002095;28;20064;-59
2021/06/12 05:33:44;;;;;;;47.08;10.82;;;20.70;79.20;;;;;;5003545;28;20120;-60
2021/06/12 05:36:10;;;;;;;39.10;10.00;;;20.70;79.30;;;;;;4984318;28;20075;-60
2021/06/12 05:38:35;;;;;;;29.75;10.52;;;20.70;79.30;;;;;;5004788;28;20091;-60
2021/06/12 05:41:01;;;;;;;27.02;9.70;;;20.70;79.50;;;;;;4998679;28;20046;-59
2021/06/12 05:43:27;;;;;;;27.55;9.60;;;20.70;79.50;;;;;;5004526;28;20459;-59
2021/06/12 05:45:52;;;;;;;27.25;10.48;;;20.60;79.80;;;;;;5001201;28;20045;-59
2021/06/12 05:48:18;;;;;;;19.75;8.70;;;20.70;80.00;;;;;;5000403;28;20057;-59
2021/06/12 05:50:43;;;;;;;15.00;10.38;;;20.70;80.20;;;;;;4983643;28;20048;-59
2021/06/12 05:53:09;;;;;;;15.32;9.05;;;20.70;80.40;;;;;;5005191;28;20053;-60
2021/06/12 05:55:34;;;;;;;19.08;9.45;;;20.60;80.20;;;;;;5000882;28;20442;-59
2021/06/12 05:58:00;;;;;;;19.85;9.85;;;20.60;80.40;;;;;;5005445;28;20093;-59
2021/06/12 06:00:27;;;;;;;20.45;8.65;;;20.60;80.40;;;;;;4998837;28;20400;-59
2021/06/12 06:02:52;;;;;;;17.67;8.52;;;20.60;80.80;;;;;;4999567;28;20137;-60
2021/06/12 06:05:18;;;;;;;16.58;8.00;;;20.60;80.70;;;;;;5001304;28;20038;-59
2021/06/12 06:07:44;;;;;;;15.02;8.13;;;20.60;80.70;;;;;;5004596;28;20037;-60
2021/06/12 06:10:09;;;;;;;16.42;8.60;;;20.60;80.40;;;;;;5001900;28;20018;-59
2021/06/12 06:12:35;;;;;;;13.48;8.35;;;20.60;80.40;;;;;;4999559;28;20096;-59
2021/06/12 06:15:02;;;;;;;16.05;8.18;;;20.60;80.30;;;;;;5000378;28;20469;-60
2021/06/12 06:17:27;;;;;;;16.65;8.13;;;20.60;80.20;;;;;;5001888;28;20113;-59
2021/06/12 06:19:53;;;;;;;13.10;7.30;;;20.60;80.10;;;;;;5001419;28;20133;-60
2021/06/12 06:22:18;;;;;;;9.77;7.45;;;20.60;80.00;;;;;;5000662;28;20038;-60
2021/06/12 06:24:44;;;;;;;9.57;7.07;;;20.60;79.90;;;;;;5001994;28;20030;-60
2021/06/12 06:27:09;;;;;;;8.10;7.30;;;20.60;79.80;;;;;;5002900;28;20030;-60
2021/06/12 06:29:35;;;;;;;11.73;8.13;;;20.60;79.70;;;;;;4999934;28;20073;-59
2021/06/12 06:32:00;;;;;;;10.57;7.38;;;20.70;79.70;;;;;;4982581;28;20465;-59
2021/06/12 06:34:26;;;;;;;8.75;6.95;;;20.60;79.60;;;;;;4997041;28;20127;-59
2021/06/12 06:36:51;;;;;;;11.35;6.80;;;20.60;79.50;;;;;;4982469;28;20037;-59
2021/06/12 06:39:17;;;;;;;9.90;6.57;;;20.60;79.30;;;;;;4998832;28;20091;-60
2021/06/12 06:41:42;;;;;;;11.35;6.75;;;20.60;79.30;;;;;;5000087;28;20042;-59
2021/06/12 06:44:08;;;;;;;9.23;6.78;;;20.70;79.20;;;;;;5000071;28;20117;-60
2021/06/12 06:46:33;;;;;;;14.27;7.20;;;20.70;79.00;;;;;;4999830;28;20465;-59
2021/06/12 06:48:59;;;;;;;14.43;7.50;;;20.70;78.90;;;;;;4998909;28;20572;-59
2021/06/12 06:51:24;;;;;;;8.00;6.57;;;20.70;78.80;;;;;;4999969;28;20500;-59
2021/06/12 06:53:50;;;;;;;9.27;7.20;;;20.70;78.70;;;;;;5003137;28;20037;-60
2021/06/12 06:56:16;;;;;;;9.10;6.35;;;20.70;78.70;;;;;;4996355;28;20068;-59
2021/06/12 06:58:41;;;;;;;8.93;6.50;;;20.80;78.50;;;;;;5001470;28;20145;-60
2021/06/12 07:01:07;;;;;;;7.32;6.63;;;20.70;78.40;;;;;;4998967;28;20058;-60
2021/06/12 07:03:32;;;;;;;8.70;6.47;;;20.80;78.30;;;;;;5013591;28;20065;-60
2021/06/12 07:05:58;;;;;;;7.70;6.90;;;20.80;78.20;;;;;;4997367;28;20030;-59
2021/06/12 07:08:23;;;;;;;9.43;6.65;;;20.80;78.80;;;;;;5014785;28;20053;-59
2021/06/12 07:10:49;;;;;;;8.32;6.05;;;20.80;78.00;;;;;;4999669;28;20025;-60
2021/06/12 07:13:22;;;;;;;8.43;6.80;;;20.80;77.90;;;;;;4992713;28;20037;-60
2021/06/12 07:15:48;;;;;;;9.05;6.50;;;20.90;77.80;;;;;;5000938;28;20037;-60
2021/06/12 07:18:14;;;;;;;8.02;6.15;;;20.90;77.80;;;;;;4998706;28;20030;-60
2021/06/12 07:20:40;;;;;;;11.90;7.18;;;20.90;77.80;;;;;;4998330;28;20041;-59
2021/06/12 07:23:06;;;;;;;8.25;6.40;;;20.90;77.70;;;;;;4982605;28;20053;-60
2021/06/12 07:25:31;;;;;;;8.43;6.60;;;20.90;77.60;;;;;;4993137;28;20069;-60
2021/06/12 07:27:57;;;;;;;7.20;6.38;;;20.90;77.50;;;;;;4998453;28;20053;-60
2021/06/12 07:30:22;;;;;;;8.88;6.18;;;20.90;77.50;;;;;;4997729;28;20025;-59
2021/06/12 07:32:48;;;;;;;8.88;6.68;;;20.90;77.50;;;;;;4998916;28;20529;-59
2021/06/12 07:35:14;;;;;;;7.32;6.63;;;20.90;77.60;;;;;;4998431;28;20034;-59
2021/06/12 07:37:39;;;;;;;7.30;5.95;;;21.00;77.80;;;;;;4980400;28;20037;-59
2021/06/12 07:40:05;;;;;;;7.18;6.53;;;21.00;77.80;;;;;;5001963;28;20046;-59
2021/06/12 07:42:31;;;;;;;8.10;6.47;;;21.00;77.60;;;;;;5000785;28;20037;-59
2021/06/12 07:44:56;;;;;;;7.40;6.55;;;21.00;77.80;;;;;;5001765;28;20037;-59
2021/06/12 07:47:22;;;;;;;7.22;6.50;;;21.10;77.80;;;;;;5001354;28;20097;-60
2021/06/12 07:49:47;;;;;;;7.75;6.07;;;21.10;77.70;;;;;;5000832;28;20536;-59
2021/06/12 07:52:13;;;;;;;7.15;6.45;;;21.10;77.50;;;;;;5002084;28;20034;-59
2021/06/12 07:54:38;;;;;;;7.95;7.00;;;21.10;77.60;;;;;;5001055;28;20041;-60
2021/06/12 07:57:04;;;;;;;7.80;6.30;;;21.10;77.70;;;;;;5000365;28;20030;-60
2021/06/12 07:59:30;;;;;;;7.78;6.60;;;21.20;77.60;;;;;;5001061;28;20030;-59
2021/06/12 08:01:55;;;;;;;14.18;6.63;;;21.20;77.60;;;;;;5000566;28;20105;-59
2021/06/12 08:04:21;;;;;;;11.43;6.80;;;21.20;77.30;;;;;;4998973;28;20060;-59
2021/06/12 08:06:46;;;;;;;11.40;6.53;;;21.30;77.10;;;;;;5001901;28;20111;-59
2021/06/12 08:09:12;;;;;;;18.40;6.93;;;21.30;76.50;;;;;;5003993;28;20103;-59
2021/06/12 08:11:37;;;;;;;12.05;6.25;;;21.30;76.00;;;;;;5004423;28;20107;-59
2021/06/12 08:14:03;;;;;;;11.65;6.38;;;21.40;75.80;;;;;;5005029;28;20584;-59
2021/06/12 08:16:28;;;;;;;11.75;6.13;;;21.40;75.40;;;;;;5001985;28;21591;-60
2021/06/12 08:18:54;;;;;;;11.95;5.55;;;21.50;75.10;;;;;;5001778;28;20050;-60
2021/06/12 08:21:19;;;;;;;13.35;6.18;;;21.50;74.80;;;;;;5003269;28;20030;-59
2021/06/12 08:23:45;;;;;;;23.35;6.15;;;21.50;74.60;;;;;;5005938;28;20029;-59
2021/06/12 08:26:11;;;;;;;16.35;5.53;;;21.60;74.40;;;;;;5004421;28;20022;-59
2021/06/12 08:28:36;;;;;;;21.08;6.95;;;21.60;74.50;;;;;;5002472;28;20065;-59
2021/06/12 08:31:04;;;;;;;21.95;6.15;;;21.60;74.30;;;;;;4999420;28;20045;-60
2021/06/12 08:33:30;;;;;;;30.33;7.07;;;21.70;74.10;;;;;;5004599;28;20486;-59
2021/06/12 08:35:55;;;;;;;19.23;6.55;;;21.70;74.00;;;;;;5001319;28;20120;-60
2021/06/12 08:38:21;;;;;;;23.35;6.50;;;21.80;73.80;;;;;;5002987;28;20032;-61
2021/06/12 08:40:47;;;;;;;44.92;7.93;;;21.80;73.80;;;;;;5002455;28;20048;-60
2021/06/12 08:43:18;;;;;;;11.77;5.63;;;21.80;73.70;;;;;;5002405;28;20096;-59
2021/06/12 08:45:44;;;;;;;30.65;6.13;;;21.80;73.10;;;;;;5004862;28;20033;-60
2021/06/12 08:48:10;;;;;;;39.85;7.85;;;21.90;73.10;;;;;;5004558;28;20073;-60
2021/06/12 08:50:35;;;;;;;21.15;6.72;;;22.00;73.10;;;;;;5004078;28;20022;-60
2021/06/12 08:53:01;;;;;;;32.88;7.55;;;22.00;73.00;;;;;;5005339;28;20025;-60
2021/06/12 08:55:26;;;;;;;31.23;6.85;;;22.00;72.90;;;;;;5002777;28;20107;-60
2021/06/12 08:57:52;;;;;;;51.88;8.68;;;22.00;72.70;;;;;;5002502;28;20506;-60
2021/06/12 09:00:18;;;;;;;55.20;9.57;;;22.10;72.70;;;;;;5002969;28;20499;-60
2021/06/12 09:03:06;;;;;;;55.63;10.52;;;22.10;73.10;;;;;;5001973;28;20046;-60
2021/06/12 09:05:51;;;;;;;47.67;8.60;;;22.20;73.10;;;;;;5002306;28;20114;-60
2021/06/12 09:08:21;;;;;;;56.22;9.07;;;22.20;73.20;;;;;;5002055;28;20042;-60
2021/06/12 09:11:12;;;;;;;49.53;9.00;;;22.30;73.00;;;;;;5033051;28;20164;-60
2021/06/12 09:13:54;;;;;;;48.63;8.93;;;22.30;72.50;;;;;;5004510;28;20026;-61
2021/06/12 09:16:37;;;;;;;66.07;9.60;;;22.40;72.70;;;;;;4988607;28;20054;-60
2021/06/12 09:19:07;;;;;;;64.50;9.68;;;22.50;72.90;;;;;;4985674;28;20046;-60
2021/06/12 09:21:34;;;;;;;51.78;9.55;;;22.50;72.60;;;;;;4983172;28;20148;-60
2021/06/12 09:24:01;;;;;;;55.30;10.38;;;22.50;72.50;;;;;;5004311;28;20092;-60
2021/06/12 09:26:47;;;;;;;69.32;10.27;;;22.60;72.20;;;;;;5003065;28;20027;-60
2021/06/12 09:29:17;;;;;;;45.63;9.85;;;22.70;72.50;;;;;;5000472;28;20022;-60
2021/06/12 09:31:45;;;;;;;54.33;9.80;;;22.60;72.10;;;;;;5002681;28;20022;-60
2021/06/12 09:34:11;;;;;;;44.50;9.77;;;22.70;71.70;;;;;;4997221;28;20038;-60
2021/06/12 09:36:37;;;;;;;60.15;9.73;;;22.80;71.70;;;;;;5000384;28;20494;-60
2021/06/12 09:39:09;;;;;;;47.67;9.15;;;22.80;72.00;;;;;;4987278;28;20118;-60
2021/06/12 09:41:34;;;;;;;53.22;10.32;;;22.80;71.70;;;;;;5003923;28;20036;-60
2021/06/12 09:44:00;;;;;;;48.13;9.48;;;22.90;71.50;;;;;;5004244;28;20038;-60
2021/06/12 09:46:30;;;;;;;59.03;8.48;;;22.90;71.70;;;;;;5003857;28;20061;-60
2021/06/12 09:48:55;;;;;;;60.85;10.02;;;22.90;72.40;;;;;;5002677;28;20030;-60
2021/06/12 09:51:21;;;;;;;48.38;9.48;;;23.00;71.40;;;;;;5003695;28;20028;-60
2021/06/12 09:53:57;;;;;;;75.57;10.90;;;23.00;71.50;;;;;;5005465;28;20049;-60
2021/06/12 09:56:24;;;;;;;80.25;11.52;;;23.10;71.90;;;;;;5001239;28;20040;-60
2021/06/12 09:58:51;;;;;;;83.78;10.55;;;23.10;71.80;;;;;;5002101;28;20038;-60
2021/06/12 10:01:19;;;;;;;74.95;11.18;;;23.10;71.60;;;;;;5001450;28;20076;-60
2021/06/12 10:03:44;;;;;;;70.88;11.52;;;23.00;71.40;;;;;;4983257;28;20040;-60
2021/06/12 10:06:10;;;;;;;56.63;11.00;;;23.20;71.40;;;;;;5000969;28;20017;-60
2021/06/12 10:08:36;;;;;;;66.03;11.70;;;23.20;71.50;;;;;;5003103;28;20634;-61
2021/06/12 10:11:02;;;;;;;52.30;9.65;;;23.30;71.50;;;;;;5001906;28;20030;-60
2021/06/12 10:13:27;;;;;;;58.85;9.27;;;23.30;71.00;;;;;;5002424;28;20164;-61
2021/06/12 10:15:53;;;;;;;68.78;11.98;;;23.40;71.10;;;;;;5000329;28;20038;-60
2021/06/12 10:18:20;;;;;;;62.95;11.68;;;23.40;70.80;;;;;;5001383;28;20046;-60
2021/06/12 10:20:45;;;;;;;54.10;10.65;;;23.50;70.60;;;;;;5001424;28;20057;-60
2021/06/12 10:23:11;;;;;;;61.42;11.02;;;23.50;70.40;;;;;;5000655;28;20030;-60
2021/06/12 10:25:36;;;;;;;54.22;9.63;;;23.50;70.20;;;;;;5013822;28;20029;-61
2021/06/12 10:28:02;;;;;;;54.67;8.48;;;23.60;70.10;;;;;;4999963;28;20517;-60
2021/06/12 10:30:29;;;;;;;51.92;9.88;;;23.60;69.90;;;;;;5001003;28;20068;-60
2021/06/12 10:32:55;;;;;;;38.75;7.90;;;23.70;70.00;;;;;;4999216;28;20486;-60
2021/06/12 10:35:23;;;;;;;38.97;10.15;;;23.80;69.40;;;;;;5000876;28;20912;-60
2021/06/12 10:38:12;;;;;;;31.70;8.52;;;23.80;69.80;;;;;;4983075;28;20037;-61
2021/06/12 10:40:41;;;;;;;60.22;10.50;;;23.90;69.40;;;;;;4999359;28;20791;-60
2021/06/12 10:43:19;;;;;;;33.38;8.48;;;24.00;69.50;;;;;;5002632;28;20055;-60
2021/06/12 10:46:05;;;;;;;51.00;9.52;;;24.10;69.30;;;;;;4999672;28;20030;-60
2021/06/12 10:48:37;;;;;;;50.00;9.07;;;24.10;69.40;;;;;;5000287;28;20034;-60
2021/06/12 10:51:03;;;;;;;46.17;9.20;;;24.30;69.40;;;;;;5001608;28;20537;-60
2021/06/12 10:53:36;;;;;;;54.72;9.20;;;24.30;69.70;;;;;;5000240;28;20666;-61
2021/06/12 10:56:07;;;;;;;33.25;8.15;;;24.40;69.20;;;;;;5002544;28;20382;-61
2021/06/12 10:58:33;;;;;;;34.70;8.52;;;24.40;69.00;;;;;;5002261;28;20038;-60
2021/06/12 11:01:16;;;;;;;50.58;9.20;;;24.60;69.00;;;;;;5003873;28;20092;-60
2021/06/12 11:03:42;;;;;;;33.97;8.75;;;24.60;68.80;;;;;;5002386;28;20030;-60
2021/06/12 11:06:32;;;;;;;42.72;8.10;;;24.70;68.10;;;;;;5000258;28;20041;-60
2021/06/12 11:09:17;;;;;;;20.85;6.35;;;24.80;67.50;;;;;;5001414;28;20020;-61
2021/06/12 11:11:47;;;;;;;18.08;6.00;;;24.90;65.10;;;;;;5001970;28;20053;-60
2021/06/12 11:14:24;;;;;;;53.22;9.13;;;25.00;64.40;;;;;;5002741;28;20034;-60
2021/06/12 11:20:00;;;;;;;25.48;8.02;;;25.20;64.60;;;;;;5002226;28;20398;-60
2021/06/12 11:22:26;;;;;;;23.40;7.45;;;25.30;64.20;;;;;;5002991;28;20501;-61
2021/06/12 11:24:56;;;;;;;45.85;7.72;;;25.50;64.00;;;;;;4999760;28;20096;-60
2021/06/12 11:27:33;;;;;;;31.45;8.07;;;25.60;64.10;;;;;;4998495;28;20037;-60
2021/06/12 11:30:20;;;;;;;45.17;9.07;;;25.70;64.30;;;;;;4998594;28;20050;-60
2021/06/12 11:32:55;;;;;;;37.17;7.95;;;25.80;64.00;;;;;;5000168;28;20038;-61
2021/06/12 11:35:49;;;;;;;31.95;7.45;;;25.90;63.60;;;;;;5002058;28;20032;-60
2021/06/12 11:38:16;;;;;;;45.78;8.65;;;25.90;63.50;;;;;;5003997;28;20025;-59
2021/06/12 11:41:03;;;;;;;18.40;5.95;;;26.00;63.30;;;;;;4985673;28;20443;-60
2021/06/12 11:43:32;;;;;;;34.88;7.32;;;26.00;60.70;;;;;;4997147;28;20437;-60
2021/06/12 11:45:57;;;;;;;33.00;7.63;;;26.10;61.10;;;;;;5001536;28;20164;-60
2021/06/12 11:48:23;;;;;;;38.75;6.47;;;26.20;61.40;;;;;;5002624;28;20120;-61
2021/06/12 11:50:49;;;;;;;34.58;6.97;;;26.20;60.70;;;;;;5001558;28;20389;-61
2021/06/12 11:53:16;;;;;;;21.30;5.45;;;26.30;60.90;;;;;;5001188;28;20056;-60
2021/06/12 11:55:41;;;;;;;32.90;6.57;;;26.40;60.50;;;;;;5000883;28;20541;-61
2021/06/12 11:58:07;;;;;;;33.13;6.40;;;26.40;60.40;;;;;;5001174;28;20254;-61
2021/06/12 12:00:37;;;;;;;26.63;5.75;;;26.50;60.00;;;;;;5001416;28;20029;-60
2021/06/12 12:03:09;;;;;;;22.33;6.05;;;26.60;59.90;;;;;;4997871;28;20026;-61
2021/06/12 12:05:51;;;;;;;34.83;6.72;;;26.70;59.50;;;;;;4999442;28;20079;-59
2021/06/12 12:08:18;;;;;;;25.73;6.82;;;26.80;59.60;;;;;;4982965;28;20028;-60
2021/06/12 12:10:45;;;;;;;32.22;7.28;;;26.80;59.60;;;;;;4981571;28;20057;-60
2021/06/12 12:13:23;;;;;;;27.42;6.55;;;26.90;59.60;;;;;;5001812;28;20121;-60
2021/06/12 12:15:49;;;;;;;32.90;6.57;;;27.00;58.80;;;;;;5001323;28;20637;-60
2021/06/12 12:18:14;;;;;;;38.28;7.13;;;27.10;58.60;;;;;;5002585;28;20116;-60
2021/06/12 12:20:58;;;;;;;34.63;6.40;;;27.20;58.30;;;;;;5001722;28;20046;-61
2021/06/12 12:23:30;;;;;;;38.65;7.13;;;27.20;58.20;;;;;;5001854;28;20030;-61
2021/06/12 12:26:09;;;;;;;29.40;7.05;;;27.40;58.30;;;;;;5000951;28;20626;-60
2021/06/12 12:29:04;;;;;;;53.20;7.93;;;27.40;57.90;;;;;;5000493;28;20029;-60
2021/06/12 12:31:30;;;;;;;40.45;7.72;;;27.50;58.00;;;;;;5001640;28;20030;-61
2021/06/12 12:33:57;;;;;;;44.53;7.30;;;27.60;58.10;;;;;;5000942;28;20079;-61
2021/06/12 12:36:23;;;;;;;44.30;7.57;;;27.60;58.00;;;;;;5000478;28;20053;-62
2021/06/12 12:38:55;;;;;;;28.98;6.93;;;27.70;58.00;;;;;;4983948;28;20204;-61
2021/06/12 12:41:20;;;;;;;23.25;6.13;;;27.70;58.00;;;;;;5000590;28;20228;-61
2021/06/12 12:43:46;;;;;;;27.30;6.03;;;27.70;57.80;;;;;;5001624;28;20117;-61
2021/06/12 12:46:11;;;;;;;28.20;6.60;;;27.70;57.80;;;;;;5003028;28;20061;-60